Time;durP1;ratioP1;P1;durP2;ratioP2;P2;SDS_P1;SDS_P2;PMS_P1;PMS_P2;Temp;Humidity;BMP_temperature;BMP_pressure;BME280_temperature;BME280_humidity;BME280_pressure;Samples;Min_cycle;Max_cycle;Signal;HPM_P1;HPM_P2
2021/12/06 00:01:30;;;;;;;2.20;1.80;;;-15.70;95.10;;;;;;5091986;28;20541;-66
2021/12/06 00:04:02;;;;;;;2.15;2.00;;;-15.80;94.60;;;;;;5092561;28;20040;-66
2021/12/06 00:06:33;;;;;;;5.05;2.10;;;-15.80;94.60;;;;;;5092236;28;20032;-66
2021/12/06 00:08:59;;;;;;;4.80;1.75;;;-15.80;94.50;;;;;;5092091;28;20530;-66
2021/12/06 00:11:25;;;;;;;1.90;1.80;;;-15.90;94.40;;;;;;5091723;28;20483;-66
2021/12/06 00:13:51;;;;;;;4.40;2.20;;;-15.90;94.90;;;;;;5092289;28;20020;-66
2021/12/06 00:16:22;;;;;;;1.75;1.65;;;-15.90;94.60;;;;;;5091883;28;20059;-66
2021/12/06 00:18:49;;;;;;;2.15;1.92;;;-15.90;94.60;;;;;;5092257;28;20028;-66
2021/12/06 00:21:16;;;;;;;2.38;1.88;;;-16.00;94.50;;;;;;5092116;28;20154;-66
2021/12/06 00:23:42;;;;;;;1.80;1.70;;;-16.00;94.60;;;;;;5091785;28;20028;-66
2021/12/06 00:26:09;;;;;;;3.60;2.08;;;-16.00;94.60;;;;;;5092115;28;20460;-66
2021/12/06 00:28:35;;;;;;;2.10;2.00;;;-16.10;94.80;;;;;;5091811;28;20028;-66
2021/12/06 00:31:03;;;;;;;3.75;2.25;;;-16.10;95.10;;;;;;5092125;28;20050;-66
2021/12/06 00:33:29;;;;;;;2.00;1.80;;;-16.20;95.00;;;;;;5091607;28;20076;-66
2021/12/06 00:35:57;;;;;;;2.17;1.80;;;-16.20;95.10;;;;;;5091722;28;20123;-66
2021/12/06 00:38:23;;;;;;;2.42;1.75;;;-16.20;95.20;;;;;;5091832;28;20032;-66
2021/12/06 00:40:50;;;;;;;2.45;1.70;;;-16.30;95.10;;;;;;5091933;28;20032;-66
2021/12/06 00:43:16;;;;;;;1.80;1.70;;;-16.30;95.30;;;;;;5091647;28;20020;-66
2021/12/06 00:45:43;;;;;;;4.78;1.70;;;-16.30;95.40;;;;;;5091860;28;20073;-66
2021/12/06 00:48:09;;;;;;;1.92;1.83;;;-16.30;95.60;;;;;;5091601;28;20029;-66
2021/12/06 00:50:38;;;;;;;2.45;2.08;;;-16.30;95.60;;;;;;5092058;28;20450;-66
2021/12/06 00:53:04;;;;;;;2.00;1.90;;;-16.30;95.50;;;;;;5091542;28;20031;-66
2021/12/06 00:55:31;;;;;;;2.25;1.90;;;-16.30;95.40;;;;;;5091413;28;20527;-66
2021/12/06 00:57:57;;;;;;;2.30;2.10;;;-16.30;95.60;;;;;;5092041;28;20028;-66
2021/12/06 01:00:42;;;;;;;2.47;1.90;;;-16.30;95.20;;;;;;5093882;28;20058;-66
2021/12/06 01:03:26;;;;;;;3.80;1.95;;;-16.30;95.10;;;;;;5094198;28;20453;-66
2021/12/06 01:05:52;;;;;;;2.13;1.92;;;-16.40;95.10;;;;;;5095718;28;20051;-65
2021/12/06 01:08:19;;;;;;;3.72;2.15;;;-16.40;95.00;;;;;;5095455;28;20032;-65
2021/12/06 01:10:46;;;;;;;2.95;2.00;;;-16.40;95.10;;;;;;5094420;28;20433;-65
2021/12/06 01:13:12;;;;;;;2.53;2.33;;;-16.50;95.10;;;;;;5095258;28;20081;-65
2021/12/06 01:15:40;;;;;;;1.92;1.83;;;-16.50;95.30;;;;;;5095101;28;20522;-65
2021/12/06 01:18:09;;;;;;;2.55;2.15;;;-16.50;95.30;;;;;;5095139;28;20440;-65
2021/12/06 01:20:48;;;;;;;2.00;1.80;;;-16.50;95.50;;;;;;5095069;28;20024;-65
2021/12/06 01:23:16;;;;;;;2.20;2.00;;;-16.40;95.60;;;;;;5095185;28;20020;-65
2021/12/06 01:28:33;;;;;;;1.83;1.70;;;-16.50;95.70;;;;;;5095297;28;20036;-65
2021/12/06 01:41:24;;;;;;;1.95;1.80;;;-16.50;96.90;;;;;;5094012;28;20085;-65
2021/12/06 01:44:13;;;;;;;1.98;1.88;;;-16.50;96.80;;;;;;5094645;28;20535;-64
2021/12/06 01:46:48;;;;;;;1.92;1.80;;;-16.60;96.90;;;;;;5094741;28;20035;-65
2021/12/06 01:49:16;;;;;;;1.85;1.75;;;-16.60;97.00;;;;;;5094571;28;20036;-65
2021/12/06 01:51:44;;;;;;;1.70;1.60;;;-16.60;97.00;;;;;;5094632;28;20079;-65
2021/12/06 01:54:11;;;;;;;3.15;1.83;;;-16.60;97.10;;;;;;5094536;28;20032;-63
2021/12/06 01:56:37;;;;;;;2.47;2.28;;;-16.60;97.20;;;;;;5094514;28;20052;-63
2021/12/06 01:59:03;;;;;;;2.75;2.33;;;-16.60;97.00;;;;;;5094247;28;20027;-63
2021/12/06 02:01:29;;;;;;;4.28;1.95;;;-16.50;96.60;;;;;;5094280;28;20042;-63
2021/12/06 02:03:55;;;;;;;2.10;2.00;;;-16.50;96.40;;;;;;5094604;28;20062;-63
2021/12/06 02:06:23;;;;;;;2.97;2.00;;;-16.50;96.00;;;;;;5094811;28;20055;-63
2021/12/06 02:08:48;;;;;;;2.05;1.83;;;-16.60;95.80;;;;;;5093608;28;20115;-63
2021/12/06 02:11:14;;;;;;;3.90;1.90;;;-16.60;95.70;;;;;;5093180;28;20107;-63
2021/12/06 02:13:53;;;;;;;1.88;1.67;;;-16.60;95.70;;;;;;5094351;28;20073;-63
2021/12/06 02:16:26;;;;;;;2.17;1.88;;;-16.70;95.80;;;;;;5094513;28;20440;-63
2021/12/06 02:19:01;;;;;;;1.80;1.70;;;-16.60;95.60;;;;;;5094074;28;20028;-63
2021/12/06 02:21:32;;;;;;;2.10;2.00;;;-16.60;95.30;;;;;;5094142;28;20078;-63
2021/12/06 02:24:00;;;;;;;2.30;2.10;;;-16.60;95.20;;;;;;5093972;28;20028;-63
2021/12/06 02:58:13;;;;;;;2.00;1.90;;;-16.60;93.80;;;;;;5093399;28;20025;-64
2021/12/06 03:00:41;;;;;;;2.28;1.98;;;-16.70;93.80;;;;;;5093195;28;20052;-64
2021/12/06 03:03:06;;;;;;;2.28;1.85;;;-16.70;93.70;;;;;;5093336;28;20047;-66
2021/12/06 03:05:32;;;;;;;2.00;1.70;;;-16.80;93.70;;;;;;5093230;28;20378;-63
2021/12/06 03:08:00;;;;;;;1.40;1.40;;;-16.80;93.90;;;;;;5092857;28;20115;-63
2021/12/06 03:10:27;;;;;;;2.13;1.88;;;-16.90;94.10;;;;;;5093266;28;20036;-63
2021/12/06 03:12:53;;;;;;;2.00;1.90;;;-17.00;94.40;;;;;;5093152;28;20024;-64
2021/12/06 03:15:19;;;;;;;2.40;1.90;;;-17.00;94.60;;;;;;5093240;28;20478;-64
2021/12/06 03:17:46;;;;;;;2.13;1.67;;;-17.00;94.80;;;;;;5093029;28;20047;-63
2021/12/06 03:20:14;;;;;;;2.20;2.10;;;-17.10;94.70;;;;;;5092873;28;20073;-64
2021/12/06 03:22:42;;;;;;;1.98;1.77;;;-17.20;94.80;;;;;;5092679;28;20023;-64
2021/12/06 03:25:12;;;;;;;1.65;1.55;;;-17.20;95.00;;;;;;5092843;28;20481;-64
2021/12/06 03:27:38;;;;;;;2.05;1.65;;;-17.20;95.00;;;;;;5092952;28;20028;-64
2021/12/06 03:30:07;;;;;;;2.30;1.98;;;-17.20;94.90;;;;;;5092518;28;20140;-64
2021/12/06 03:32:33;;;;;;;1.77;1.67;;;-17.20;94.90;;;;;;5092475;28;20480;-64
2021/12/06 03:34:59;;;;;;;2.30;2.05;;;-17.20;95.00;;;;;;5092751;28;20039;-64
2021/12/06 03:37:24;;;;;;;2.22;1.92;;;-17.20;95.10;;;;;;5092461;28;20081;-64
2021/12/06 03:39:50;;;;;;;2.35;2.15;;;-17.20;94.90;;;;;;5092553;28;20032;-64
2021/12/06 03:42:19;;;;;;;1.98;1.83;;;-17.20;94.60;;;;;;5092392;28;20020;-64
2021/12/06 03:44:45;;;;;;;2.15;1.95;;;-17.20;94.60;;;;;;5092312;28;20031;-64
2021/12/06 03:47:24;;;;;;;2.65;2.13;;;-17.20;94.60;;;;;;5092535;28;20364;-64
2021/12/06 03:49:51;;;;;;;1.88;1.77;;;-17.20;94.30;;;;;;5092522;28;20097;-64
2021/12/06 03:52:17;;;;;;;1.85;1.75;;;-17.20;94.20;;;;;;5092518;28;20024;-63
2021/12/06 03:54:43;;;;;;;2.13;1.92;;;-17.30;94.50;;;;;;5092240;28;20057;-63
2021/12/06 03:57:10;;;;;;;3.28;2.10;;;-17.30;94.80;;;;;;5092357;28;20024;-63
2021/12/06 03:59:36;;;;;;;1.67;1.58;;;-17.30;95.00;;;;;;5092275;28;20131;-63
2021/12/06 04:02:02;;;;;;;2.10;1.90;;;-17.30;95.20;;;;;;5091958;28;20111;-64
2021/12/06 04:04:28;;;;;;;1.90;1.77;;;-17.40;95.20;;;;;;5092092;28;20554;-64
2021/12/06 04:06:54;;;;;;;2.05;1.58;;;-17.40;95.20;;;;;;5092274;28;20107;-63
2021/12/06 04:09:20;;;;;;;2.30;2.10;;;-17.50;95.40;;;;;;5092209;28;20028;-63
2021/12/06 04:11:47;;;;;;;1.80;1.70;;;-17.50;95.70;;;;;;5092181;28;20123;-63
2021/12/06 04:14:14;;;;;;;1.90;1.80;;;-17.50;95.60;;;;;;5091935;28;20419;-63
2021/12/06 04:16:40;;;;;;;1.90;1.80;;;-17.50;95.70;;;;;;5092304;28;20063;-64
2021/12/06 04:19:07;;;;;;;1.90;1.80;;;-17.40;95.60;;;;;;5091832;28;20032;-64
2021/12/06 04:21:33;;;;;;;2.33;2.13;;;-17.40;95.40;;;;;;5091924;28;20510;-64
2021/12/06 04:23:59;;;;;;;4.40;1.80;;;-17.40;95.10;;;;;;5091783;28;20390;-65
2021/12/06 04:26:26;;;;;;;1.55;1.45;;;-17.40;95.00;;;;;;5092246;28;20103;-64
2021/12/06 04:28:59;;;;;;;1.85;1.75;;;-17.40;94.80;;;;;;5091855;28;20084;-64
2021/12/06 04:31:26;;;;;;;2.08;1.92;;;-17.50;94.80;;;;;;5091918;28;20043;-63
2021/12/06 04:33:52;;;;;;;2.00;1.80;;;-17.60;94.90;;;;;;5093853;28;20024;-63
2021/12/06 04:36:18;;;;;;;2.20;2.00;;;-17.50;95.00;;;;;;5096023;28;20197;-63
2021/12/06 04:38:44;;;;;;;2.33;2.13;;;-17.50;94.90;;;;;;5095859;28;20097;-63
2021/12/06 04:41:10;;;;;;;2.15;1.98;;;-17.50;94.90;;;;;;5094515;28;20115;-63
2021/12/06 04:43:36;;;;;;;3.95;2.25;;;-17.60;94.80;;;;;;5095905;28;20589;-63
2021/12/06 04:46:02;;;;;;;1.90;1.80;;;-17.60;95.00;;;;;;5095677;28;20542;-63
2021/12/06 04:48:28;;;;;;;1.92;1.83;;;-17.60;94.90;;;;;;5095710;28;20073;-63
2021/12/06 04:50:54;;;;;;;1.73;1.63;;;-17.60;94.80;;;;;;5095922;28;20040;-63
2021/12/06 04:53:24;;;;;;;1.80;1.70;;;-17.60;94.90;;;;;;5095623;28;20460;-63
2021/12/06 04:55:53;;;;;;;3.60;2.03;;;-17.60;94.90;;;;;;5095790;28;20036;-63
2021/12/06 04:58:24;;;;;;;2.60;2.40;;;-17.60;94.80;;;;;;5095844;28;20023;-65
2021/12/06 05:01:02;;;;;;;1.98;1.88;;;-17.70;94.50;;;;;;5095270;28;20044;-65
2021/12/06 05:03:30;;;;;;;1.90;1.80;;;-17.70;94.50;;;;;;5095447;28;20036;-66
2021/12/06 05:06:00;;;;;;;2.22;2.05;;;-17.70;94.50;;;;;;5095293;28;20055;-65
2021/12/06 05:08:30;;;;;;;1.90;1.65;;;-17.70;94.60;;;;;;5095190;28;20040;-65
2021/12/06 05:10:58;;;;;;;1.80;1.70;;;-17.70;94.40;;;;;;5095374;28;20036;-66
2021/12/06 05:13:26;;;;;;;2.35;2.15;;;-17.70;94.40;;;;;;5095226;28;20103;-63
2021/12/06 05:15:52;;;;;;;4.10;2.00;;;-17.70;94.50;;;;;;5095118;28;20051;-64
2021/12/06 05:18:18;;;;;;;3.53;2.00;;;-17.70;94.30;;;;;;5095018;28;20056;-63
2021/12/06 05:20:44;;;;;;;1.92;1.80;;;-17.70;94.50;;;;;;5095107;28;20070;-63
2021/12/06 05:23:11;;;;;;;2.00;1.90;;;-17.70;94.60;;;;;;5095080;28;20105;-63
2021/12/06 05:25:37;;;;;;;2.13;1.95;;;-17.70;94.50;;;;;;5095065;28;20016;-63
2021/12/06 05:28:04;;;;;;;2.78;2.20;;;-17.70;94.60;;;;;;5094855;28;20070;-64
2021/12/06 05:30:31;;;;;;;3.72;2.08;;;-17.70;94.50;;;;;;5094657;28;20073;-64
2021/12/06 05:33:00;;;;;;;2.08;1.85;;;-17.70;94.60;;;;;;5095005;28;20031;-63
2021/12/06 05:35:26;;;;;;;3.00;2.00;;;-17.70;94.90;;;;;;5094824;28;20020;-68
2021/12/06 05:37:57;;;;;;;1.88;1.77;;;-17.70;95.10;;;;;;5094489;28;20028;-63
2021/12/06 05:40:32;;;;;;;2.03;1.83;;;-17.70;95.20;;;;;;5094672;28;20031;-62
2021/12/06 05:42:59;;;;;;;2.53;2.30;;;-16.40;99.90;;;;;;5094129;28;20051;-63
2021/12/06 05:45:28;;;;;;;2.92;1.90;;;-16.10;99.90;;;;;;5093610;28;20036;-62
2021/12/06 05:47:54;;;;;;;3.13;2.03;;;-16.60;99.90;;;;;;5094166;28;20020;-63
2021/12/06 05:50:23;;;;;;;2.50;1.88;;;-17.00;99.90;;;;;;5093855;28;20373;-62
2021/12/06 05:52:52;;;;;;;1.90;1.80;;;-17.20;99.90;;;;;;5093725;28;20509;-63
2021/12/06 05:55:19;;;;;;;3.57;2.37;;;-17.30;99.90;;;;;;5093667;28;20024;-62
2021/12/06 05:57:45;;;;;;;5.20;2.33;;;-17.30;99.90;;;;;;5093840;28;20285;-62
2021/12/06 06:00:15;;;;;;;2.40;2.20;;;-17.30;99.90;;;;;;5093824;28;20913;-64
2021/12/06 06:02:41;;;;;;;1.63;1.55;;;-17.30;99.90;;;;;;5094247;28;20041;-63
2021/12/06 06:05:08;;;;;;;2.47;1.98;;;-17.30;99.90;;;;;;5093139;28;20085;-63
2021/12/06 06:07:34;;;;;;;1.90;1.80;;;-17.40;99.90;;;;;;5093341;28;20434;-64
2021/12/06 06:10:00;;;;;;;1.85;1.75;;;-17.30;99.90;;;;;;5093387;28;20044;-61
2021/12/06 06:12:26;;;;;;;1.70;1.60;;;-17.40;99.90;;;;;;5093339;28;20036;-62
2021/12/06 06:14:53;;;;;;;2.35;1.88;;;-17.40;99.90;;;;;;5093105;28;20020;-62
2021/12/06 06:17:20;;;;;;;4.28;1.98;;;-17.40;99.90;;;;;;5093197;28;20016;-62
2021/12/06 06:19:51;;;;;;;4.15;2.38;;;-17.40;99.90;;;;;;5093694;28;20028;-61
2021/12/06 06:22:19;;;;;;;2.78;2.25;;;-17.40;99.90;;;;;;5093076;28;20418;-62
2021/12/06 06:24:45;;;;;;;2.45;2.05;;;-17.40;99.90;;;;;;5093374;28;20068;-60
2021/12/06 06:27:11;;;;;;;4.53;2.22;;;-17.30;99.90;;;;;;5099098;28;20020;-57
2021/12/06 06:29:36;;;;;;;1.73;1.63;;;-17.20;99.90;;;;;;5094717;28;20031;-61
2021/12/06 06:32:04;;;;;;;2.63;2.13;;;-16.30;99.90;;;;;;5093759;28;20032;-61
2021/12/06 06:34:30;;;;;;;4.50;2.55;;;-16.10;99.90;;;;;;5094006;28;20051;-61
2021/12/06 06:36:56;;;;;;;5.25;2.35;;;-16.40;99.90;;;;;;5093612;28;20078;-61
2021/12/06 06:39:22;;;;;;;3.33;1.63;;;-16.60;99.90;;;;;;5093420;28;20016;-61
2021/12/06 06:41:49;;;;;;;2.03;1.83;;;-16.20;99.90;;;;;;5093529;28;20035;-60
2021/12/06 06:44:17;;;;;;;2.05;1.95;;;-14.60;99.90;;;;;;5093351;28;20028;-61
2021/12/06 06:46:43;;;;;;;3.92;2.25;;;-14.90;99.90;;;;;;5093585;28;20028;-61
2021/12/06 06:49:09;;;;;;;5.70;2.35;;;-15.50;99.90;;;;;;5093273;28;20436;-61
2021/12/06 06:51:36;;;;;;;2.97;2.20;;;-16.00;99.90;;;;;;5093587;28;20028;-61
2021/12/06 06:54:02;;;;;;;2.00;1.90;;;-16.30;99.90;;;;;;5093153;28;20479;-62
2021/12/06 06:56:28;;;;;;;2.00;1.90;;;-16.40;99.90;;;;;;5092555;28;20475;-62
2021/12/06 06:58:54;;;;;;;1.88;1.77;;;-16.50;99.90;;;;;;5093297;28;20100;-61
2021/12/06 07:01:21;;;;;;;2.40;2.20;;;-16.60;99.90;;;;;;5093145;28;20113;-61
2021/12/06 07:03:50;;;;;;;2.13;1.92;;;-16.60;99.90;;;;;;5093520;28;20024;-61
2021/12/06 07:06:16;;;;;;;2.10;1.92;;;-16.60;99.90;;;;;;5093318;28;20037;-61
2021/12/06 07:08:43;;;;;;;2.20;2.00;;;-16.60;99.90;;;;;;5093053;28;20095;-61
2021/12/06 07:11:09;;;;;;;2.22;1.80;;;-16.70;99.90;;;;;;5093011;28;20503;-61
2021/12/06 07:13:38;;;;;;;2.28;1.98;;;-16.80;99.90;;;;;;5093292;28;20084;-62
2021/12/06 07:16:06;;;;;;;1.75;1.50;;;-16.80;99.90;;;;;;5093070;28;20023;-61
2021/12/06 07:18:32;;;;;;;5.90;1.90;;;-16.80;99.90;;;;;;5093266;28;20020;-63
2021/12/06 07:20:58;;;;;;;2.00;1.90;;;-16.80;99.90;;;;;;5106732;28;20542;-63
2021/12/06 07:23:24;;;;;;;1.95;1.85;;;-16.90;99.90;;;;;;5111810;27;20115;-62
2021/12/06 07:25:49;;;;;;;2.70;2.50;;;-17.00;99.90;;;;;;5121928;27;20707;-61
2021/12/06 07:28:15;;;;;;;2.15;2.05;;;-17.00;99.90;;;;;;5116334;27;20103;-61
2021/12/06 07:30:41;;;;;;;2.30;2.10;;;-16.90;99.90;;;;;;5129017;27;20039;-61
2021/12/06 07:33:07;;;;;;;2.03;1.92;;;-16.90;99.90;;;;;;5098570;28;20035;-61
2021/12/06 07:35:33;;;;;;;4.10;2.55;;;-16.80;99.90;;;;;;5105753;27;20031;-61
2021/12/06 07:38:02;;;;;;;2.85;2.38;;;-16.80;99.90;;;;;;5110328;27;20019;-62
2021/12/06 07:40:29;;;;;;;2.10;2.00;;;-16.70;99.90;;;;;;5128018;27;20467;-61
2021/12/06 07:42:55;;;;;;;1.70;1.60;;;-16.70;99.90;;;;;;5116221;27;20027;-61
2021/12/06 07:45:22;;;;;;;2.15;2.00;;;-16.70;99.90;;;;;;5117166;27;20035;-61
2021/12/06 07:47:48;;;;;;;2.83;2.53;;;-16.80;99.90;;;;;;5115205;27;20019;-61
2021/12/06 07:50:17;;;;;;;2.40;1.98;;;-16.80;99.90;;;;;;5102951;27;20538;-61
2021/12/06 07:52:44;;;;;;;4.90;2.08;;;-16.70;99.90;;;;;;5121068;27;20011;-61
2021/12/06 07:55:12;;;;;;;3.15;2.28;;;-16.70;99.90;;;;;;5099832;27;20020;-61
2021/12/06 07:57:38;;;;;;;3.60;2.25;;;-16.70;99.90;;;;;;5113449;27;20072;-62
2021/12/06 08:00:13;;;;;;;8.77;3.28;;;-16.70;99.90;;;;;;5117473;27;20035;-62
2021/12/06 08:02:39;;;;;;;3.28;2.20;;;-16.60;99.90;;;;;;5128509;27;20019;-63
2021/12/06 08:07:50;;;;;;;1.58;1.55;;;-16.60;99.90;;;;;;5120059;27;20030;-63
2021/12/06 08:10:16;;;;;;;4.55;2.03;;;-16.50;99.90;;;;;;5093360;28;20040;-63
2021/12/06 08:12:42;;;;;;;1.60;1.50;;;-16.20;99.90;;;;;;5125147;27;20050;-63
2021/12/06 08:15:08;;;;;;;2.28;2.08;;;-15.90;99.90;;;;;;5103484;27;20065;-62
2021/12/06 08:17:35;;;;;;;5.90;2.03;;;-16.20;99.90;;;;;;5120991;27;20016;-61
2021/12/06 08:20:00;;;;;;;2.10;1.75;;;-16.20;99.90;;;;;;5109006;27;20070;-62
2021/12/06 08:22:26;;;;;;;1.73;1.63;;;-16.20;99.90;;;;;;5125144;28;20474;-61
2021/12/06 08:24:52;;;;;;;2.22;2.03;;;-16.20;99.90;;;;;;5115858;28;20030;-61
2021/12/06 08:27:18;;;;;;;2.55;2.20;;;-16.30;99.90;;;;;;5124423;28;20372;-61
2021/12/06 08:29:43;;;;;;;2.70;1.95;;;-16.30;99.90;;;;;;5120213;28;20117;-61
2021/12/06 08:32:11;;;;;;;2.38;2.10;;;-16.20;99.90;;;;;;5093944;28;20024;-61
2021/12/06 08:34:41;;;;;;;2.33;1.90;;;-16.20;99.90;;;;;;5127045;28;20023;-61
2021/12/06 08:37:11;;;;;;;2.42;1.92;;;-16.20;99.90;;;;;;5117939;28;20030;-61
2021/12/06 08:39:38;;;;;;;2.72;1.80;;;-16.20;99.90;;;;;;5121896;28;20024;-61
2021/12/06 08:42:05;;;;;;;2.35;1.88;;;-16.20;99.90;;;;;;5125263;28;20387;-62
2021/12/06 08:44:31;;;;;;;3.80;1.90;;;-16.20;99.90;;;;;;5114538;28;20023;-60
2021/12/06 08:46:57;;;;;;;2.22;2.03;;;-16.10;99.90;;;;;;5127018;28;20023;-61
2021/12/06 08:49:22;;;;;;;1.75;1.65;;;-16.20;99.90;;;;;;5119757;28;20031;-60
2021/12/06 08:51:51;;;;;;;2.80;1.73;;;-16.20;99.90;;;;;;5119824;28;20110;-60
2021/12/06 08:54:18;;;;;;;1.80;1.70;;;-16.20;99.90;;;;;;5121062;28;20050;-61
2021/12/06 08:56:46;;;;;;;2.08;1.98;;;-16.20;99.90;;;;;;5124991;28;20047;-61
2021/12/06 08:59:12;;;;;;;1.85;1.75;;;-16.20;99.90;;;;;;5106484;28;20060;-61
2021/12/06 09:01:40;;;;;;;2.05;1.90;;;-16.10;99.90;;;;;;5112031;28;20027;-62
2021/12/06 09:04:09;;;;;;;2.50;2.30;;;-16.10;99.90;;;;;;5110208;28;20027;-62
2021/12/06 09:06:37;;;;;;;2.55;1.80;;;-16.10;99.90;;;;;;5094054;28;20534;-61
2021/12/06 09:09:07;;;;;;;2.55;2.25;;;-16.10;99.90;;;;;;5093740;28;20074;-63
2021/12/06 09:11:35;;;;;;;3.85;2.38;;;-16.00;99.90;;;;;;5108968;28;20108;-62
2021/12/06 09:14:01;;;;;;;3.80;2.63;;;-16.00;99.90;;;;;;5110974;28;20029;-62
2021/12/06 09:16:27;;;;;;;2.60;1.95;;;-15.70;99.90;;;;;;5111646;28;20024;-63
2021/12/06 09:18:53;;;;;;;3.83;2.22;;;-12.20;99.90;;;;;;5112196;28;20069;-61
2021/12/06 09:21:21;;;;;;;3.70;2.53;;;-10.20;99.90;;;;;;5115340;28;20027;-61
2021/12/06 09:23:48;;;;;;;8.43;3.88;;;-10.90;99.90;;;;;;5115581;28;20030;-62
2021/12/06 09:26:14;;;;;;;4.07;2.67;;;-12.30;99.90;;;;;;5115426;28;20532;-62
2021/12/06 09:28:41;;;;;;;3.63;2.25;;;-13.30;99.90;;;;;;5115509;28;20378;-61
2021/12/06 09:31:07;;;;;;;4.60;2.70;;;-13.90;99.90;;;;;;5115408;28;20038;-61
2021/12/06 09:33:35;;;;;;;7.68;3.00;;;-14.30;99.90;;;;;;5115445;28;20103;-62
2021/12/06 09:36:01;;;;;;;5.65;2.80;;;-14.60;99.90;;;;;;5115203;28;20063;-62
2021/12/06 09:38:34;;;;;;;3.92;2.78;;;-14.70;99.90;;;;;;5115257;28;20023;-61
2021/12/06 09:41:01;;;;;;;8.10;3.25;;;-14.80;99.90;;;;;;5115004;28;20098;-62
2021/12/06 09:43:27;;;;;;;3.22;2.55;;;-14.80;99.90;;;;;;5115251;28;20028;-62
2021/12/06 09:45:54;;;;;;;4.70;3.03;;;-14.90;99.90;;;;;;5115101;28;20084;-61
2021/12/06 09:48:20;;;;;;;4.68;2.85;;;-14.90;99.90;;;;;;5114941;28;20401;-61
2021/12/06 09:50:54;;;;;;;6.22;2.92;;;-14.90;99.90;;;;;;5114891;28;20035;-62
2021/12/06 09:53:23;;;;;;;2.45;2.15;;;-14.90;99.90;;;;;;5115236;28;20020;-62
2021/12/06 09:55:53;;;;;;;2.50;2.30;;;-15.00;99.90;;;;;;5114955;28;20032;-62
2021/12/06 09:58:19;;;;;;;3.37;2.30;;;-15.00;99.90;;;;;;5115167;28;20027;-62
2021/12/06 10:00:50;;;;;;;3.13;2.33;;;-14.90;99.90;;;;;;5114776;28;20285;-62
2021/12/06 10:03:22;;;;;;;2.33;2.13;;;-14.90;99.90;;;;;;5113406;28;20039;-60
2021/12/06 10:05:47;;;;;;;2.30;2.10;;;-14.90;99.90;;;;;;5114737;28;20076;-60
2021/12/06 10:08:13;;;;;;;4.10;1.85;;;-15.00;99.90;;;;;;5114606;28;20031;-61
2021/12/06 10:10:39;;;;;;;2.03;1.92;;;-15.00;99.90;;;;;;5114541;28;20061;-61
2021/12/06 10:13:06;;;;;;;1.50;1.42;;;-15.10;99.90;;;;;;5114548;28;20027;-60
2021/12/06 10:15:32;;;;;;;2.13;2.00;;;-15.10;99.90;;;;;;5114515;28;20051;-60
2021/12/06 10:18:00;;;;;;;2.85;2.00;;;-15.10;99.90;;;;;;5114486;28;20069;-60
2021/12/06 10:20:27;;;;;;;7.28;3.15;;;-15.10;99.90;;;;;;5114365;28;20024;-61
2021/12/06 10:22:54;;;;;;;6.07;2.92;;;-15.00;99.90;;;;;;5101667;28;20028;-61
2021/12/06 10:25:22;;;;;;;4.10;2.35;;;-14.90;99.90;;;;;;5094039;28;20111;-60
2021/12/06 10:27:56;;;;;;;2.67;2.40;;;-14.80;99.90;;;;;;5094224;28;20024;-60
2021/12/06 10:30:23;;;;;;;3.38;2.10;;;-14.80;99.90;;;;;;5092719;28;20036;-60
2021/12/06 10:32:59;;;;;;;1.90;1.80;;;-14.80;99.90;;;;;;5093788;28;20039;-60
2021/12/06 10:35:24;;;;;;;2.97;2.35;;;-14.70;99.90;;;;;;5093628;28;20020;-61
2021/12/06 10:37:57;;;;;;;2.05;1.95;;;-14.70;99.90;;;;;;5093913;28;20161;-61
2021/12/06 10:40:35;;;;;;;3.22;2.40;;;-14.70;99.90;;;;;;5093306;28;20067;-61
2021/12/06 10:43:05;;;;;;;2.25;1.70;;;-14.70;99.90;;;;;;5093705;28;20023;-60
2021/12/06 10:45:35;;;;;;;3.40;2.13;;;-13.40;99.90;;;;;;5093441;28;20395;-61
2021/12/06 10:48:26;;;;;;;3.00;2.13;;;-9.30;99.90;;;;;;5094286;28;20028;-62
2021/12/06 10:50:52;;;;;;;2.97;2.03;;;-9.30;99.90;;;;;;5093741;28;20032;-63
2021/12/06 10:53:28;;;;;;;5.60;2.25;;;-10.80;99.90;;;;;;5093541;28;20047;-63
2021/12/06 10:55:56;;;;;;;2.75;2.25;;;-11.90;99.90;;;;;;5093771;28;20035;-62
2021/12/06 10:58:27;;;;;;;2.58;1.90;;;-12.60;99.90;;;;;;5093020;28;20066;-62
2021/12/06 11:00:55;;;;;;;;;;;-12.50;99.90;;;;;;5096166;28;20487;-62
2021/12/06 11:03:22;;;;;;;2.42;2.22;;;-12.80;99.90;;;;;;5092915;28;20275;-62
2021/12/06 11:06:04;;;;;;;3.28;2.00;;;-13.00;99.90;;;;;;5091924;28;20101;-62
2021/12/06 11:08:35;;;;;;;3.75;2.00;;;-13.20;99.90;;;;;;5091848;28;20028;-62
2021/12/06 11:11:09;;;;;;;2.05;1.63;;;-13.40;99.90;;;;;;5095669;28;20021;-62
2021/12/06 11:13:41;;;;;;;3.15;2.13;;;-13.50;99.90;;;;;;5095551;28;20150;-62
2021/12/06 11:16:07;;;;;;;1.80;1.70;;;-13.60;99.90;;;;;;5091425;28;20027;-62
2021/12/06 11:18:33;;;;;;;2.55;1.92;;;-13.60;99.90;;;;;;5093589;28;20117;-62
2021/12/06 11:21:00;;;;;;;1.85;1.75;;;-13.70;99.90;;;;;;5105063;28;20044;-62
2021/12/06 11:23:26;;;;;;;1.70;1.60;;;-13.70;99.90;;;;;;5094068;28;20028;-63
2021/12/06 11:26:01;;;;;;;1.90;1.73;;;-13.80;99.90;;;;;;5093146;28;20495;-62
2021/12/06 11:28:31;;;;;;;4.25;1.67;;;-13.70;99.90;;;;;;5092550;28;20020;-62
2021/12/06 11:31:03;;;;;;;3.30;2.15;;;-13.80;99.90;;;;;;5093138;28;20028;-63
2021/12/06 11:33:34;;;;;;;1.80;1.70;;;-13.80;99.90;;;;;;5092826;28;20403;-63
2021/12/06 11:36:17;;;;;;;2.20;2.00;;;-13.90;99.90;;;;;;5092961;28;20426;-63
2021/12/06 11:38:46;;;;;;;1.73;1.60;;;-13.90;99.90;;;;;;5092550;28;20460;-63
2021/12/06 11:41:13;;;;;;;1.80;1.70;;;-13.90;99.90;;;;;;5092498;28;20020;-63
2021/12/06 11:43:39;;;;;;;4.68;1.83;;;-13.90;99.90;;;;;;5094840;28;20770;-62
2021/12/06 11:46:07;;;;;;;3.47;1.88;;;-13.90;99.90;;;;;;5092607;28;20012;-63
2021/12/06 11:48:37;;;;;;;2.38;2.17;;;-13.90;99.90;;;;;;5092387;28;20024;-63
2021/12/06 11:51:10;;;;;;;1.95;1.85;;;-13.80;99.90;;;;;;5092504;28;20044;-63
2021/12/06 11:53:44;;;;;;;2.33;1.95;;;-13.80;99.90;;;;;;5092549;28;20032;-63
2021/12/06 11:56:21;;;;;;;5.40;1.63;;;-13.80;99.90;;;;;;5092135;28;20452;-63
2021/12/06 11:59:12;;;;;;;1.85;1.67;;;-13.80;99.90;;;;;;5091023;28;20428;-63
2021/12/06 12:01:41;;;;;;;2.53;2.28;;;-13.80;99.90;;;;;;5091934;28;20068;-63
2021/12/06 12:04:21;;;;;;;3.53;2.20;;;-13.80;99.90;;;;;;5091977;28;20013;-64
2021/12/06 12:07:03;;;;;;;1.83;1.73;;;-13.70;99.90;;;;;;5092253;28;20119;-63
2021/12/06 12:09:30;;;;;;;2.35;1.85;;;-13.70;99.90;;;;;;5091877;28;20072;-63
2021/12/06 12:12:06;;;;;;;2.97;2.20;;;-13.60;99.90;;;;;;5092318;28;20035;-63
2021/12/06 12:14:43;;;;;;;2.22;2.03;;;-13.60;99.90;;;;;;5091786;28;20032;-63
2021/12/06 12:17:21;;;;;;;3.10;2.35;;;-13.50;99.90;;;;;;5091975;28;20032;-64
2021/12/06 12:19:50;;;;;;;3.58;2.50;;;-13.50;99.90;;;;;;5091904;28;20058;-63
2021/12/06 12:22:17;;;;;;;2.50;2.25;;;-13.40;99.90;;;;;;5092081;28;20028;-63
2021/12/06 12:24:47;;;;;;;3.83;2.72;;;-13.40;99.90;;;;;;5092153;28;20024;-63
2021/12/06 12:29:50;;;;;;;3.45;2.55;;;-13.40;99.90;;;;;;5091702;28;20094;-65
2021/12/06 12:32:17;;;;;;;16.45;3.22;;;-13.30;99.90;;;;;;5100100;28;20028;-64
2021/12/06 12:34:45;;;;;;;3.42;2.65;;;-13.30;99.90;;;;;;5097462;28;20391;-63
2021/12/06 12:37:13;;;;;;;2.45;2.25;;;-13.20;99.90;;;;;;5106036;28;20030;-64
2021/12/06 12:39:39;;;;;;;2.20;2.00;;;-13.10;99.90;;;;;;5094755;28;20507;-64
2021/12/06 12:42:08;;;;;;;2.38;2.13;;;-13.10;99.90;;;;;;5111997;28;20088;-63
2021/12/06 12:44:43;;;;;;;6.22;2.20;;;-13.10;99.90;;;;;;5111765;28;20024;-63
2021/12/06 12:47:24;;;;;;;4.13;2.50;;;-13.20;99.90;;;;;;5111879;28;20031;-63
2021/12/06 12:49:58;;;;;;;;;;;-13.20;99.90;;;;;;5112251;28;20044;-65
2021/12/06 12:52:47;;;;;;;3.30;2.38;;;-12.40;99.90;;;;;;5112288;28;19957;-62
2021/12/06 12:55:30;;;;;;;3.65;2.88;;;-12.30;99.90;;;;;;5105467;28;20056;-63
2021/12/06 12:58:16;;;;;;;4.22;2.28;;;-12.50;99.90;;;;;;5095745;28;20106;-63
2021/12/06 13:00:50;;;;;;;3.97;2.17;;;-12.70;99.90;;;;;;5095201;28;20044;-63
2021/12/06 13:03:34;;;;;;;8.35;2.65;;;-12.40;99.90;;;;;;5094932;28;20099;-63
2021/12/06 13:06:17;;;;;;;2.47;2.28;;;-12.40;99.90;;;;;;5095339;28;20024;-63
2021/12/06 13:08:44;;;;;;;2.53;2.17;;;-12.60;99.90;;;;;;5095253;28;20016;-63
2021/12/06 13:11:11;;;;;;;2.55;2.20;;;-12.70;99.90;;;;;;5095111;28;20082;-63
2021/12/06 13:13:43;;;;;;;5.57;2.63;;;-12.80;99.90;;;;;;5095623;28;20048;-63
2021/12/06 13:16:35;;;;;;;3.28;2.47;;;-12.70;99.90;;;;;;5095332;28;20522;-63
2021/12/06 13:19:16;;;;;;;2.92;1.85;;;-12.80;99.90;;;;;;5095564;28;20097;-63
2021/12/06 13:22:05;;;;;;;2.20;2.00;;;-10.50;99.90;;;;;;5095404;28;20415;-63
2021/12/06 13:24:46;;;;;;;3.47;2.70;;;-10.50;99.90;;;;;;5095086;28;20077;-63
2021/12/06 13:27:24;;;;;;;4.05;2.22;;;-11.20;99.90;;;;;;5097402;28;20067;-65
2021/12/06 13:29:56;;;;;;;2.67;1.98;;;-11.70;99.90;;;;;;5094916;28;20072;-65
2021/12/06 13:32:46;;;;;;;2.55;1.95;;;-12.00;99.90;;;;;;5094943;28;20072;-65
2021/12/06 13:35:23;;;;;;;2.78;2.20;;;-12.20;99.90;;;;;;5095153;28;20024;-65
2021/12/06 13:38:16;;;;;;;3.80;2.10;;;-12.30;99.90;;;;;;5094777;28;20028;-65